Time;durP1;ratioP1;P1;durP2;ratioP2;P2;SDS_P1;SDS_P2;PMS_P1;PMS_P2;Temp;Humidity;BMP_temperature;BMP_pressure;BME280_temperature;BME280_humidity;BME280_pressure;Samples;Min_cycle;Max_cycle;Signal;HPM_P1;HPM_P2
2022/02/13 00:04:29;;;;;;;9.00;4.80;;;;;1.50;101394.00;;;;10459356;28;20760;-78
2022/02/13 00:09:32;;;;;;;5.80;4.00;;;;;1.50;101398.00;;;;10520925;28;20262;-78
2022/02/13 00:14:33;;;;;;;5.93;4.57;;;;;1.50;101405.00;;;;10486866;28;20197;-78
2022/02/13 00:19:35;;;;;;;9.70;4.73;;;;;1.50;101403.00;;;;10520012;28;20228;-78
2022/02/13 00:24:37;;;;;;;10.33;5.47;;;;;1.40;101391.00;;;;10520369;28;20236;-78
2022/02/13 00:29:39;;;;;;;9.67;4.60;;;;;1.40;101381.00;;;;10495622;28;20581;-78
2022/02/13 00:34:44;;;;;;;8.37;4.47;;;;;1.30;101375.00;;;;10483850;28;20217;-78
2022/02/13 00:39:46;;;;;;;9.47;4.80;;;;;1.40;101375.00;;;;10526992;28;20563;-78
2022/02/13 00:44:49;;;;;;;9.97;5.47;;;;;1.30;101356.00;;;;10511947;28;20299;-78
2022/02/13 00:49:53;;;;;;;10.03;4.70;;;;;1.30;101344.00;;;;10544348;28;20555;-78
2022/02/13 00:54:54;;;;;;;8.80;4.50;;;;;1.40;101344.00;;;;10509440;28;20188;-78
2022/02/13 00:59:58;;;;;;;10.57;5.00;;;;;1.40;101332.00;;;;10552675;28;20209;-78
2022/02/13 01:05:01;;;;;;;9.90;4.50;;;;;1.50;101320.00;;;;10502407;28;20321;-79
2022/02/13 01:10:03;;;;;;;10.70;4.73;;;;;1.50;101307.00;;;;10493069;28;20189;-78
2022/02/13 01:15:05;;;;;;;7.93;4.27;;;;;1.50;101308.00;;;;10493264;28;20189;-78
2022/02/13 01:20:08;;;;;;;8.33;4.60;;;;;1.50;101309.00;;;;10526343;28;20192;-78
2022/02/13 01:25:10;;;;;;;5.63;3.70;;;;;1.50;101313.00;;;;10509541;28;20205;-78
2022/02/13 01:30:11;;;;;;;9.63;4.63;;;;;1.40;101307.00;;;;10509261;28;20200;-78
2022/02/13 01:35:14;;;;;;;7.93;4.37;;;;;1.40;101302.00;;;;10475680;28;20216;-78
2022/02/13 01:40:16;;;;;;;7.83;3.93;;;;;1.30;101291.00;;;;10543112;28;20200;-78
2022/02/13 01:45:18;;;;;;;9.03;4.90;;;;;1.30;101284.00;;;;10499890;28;20262;-78
2022/02/13 01:50:20;;;;;;;10.43;4.33;;;;;1.10;101282.00;;;;10508660;28;20656;-78
2022/02/13 01:55:23;;;;;;;10.77;4.23;;;;;1.10;101280.00;;;;10541854;28;20235;-78
2022/02/13 02:00:25;;;;;;;11.97;4.77;;;;;1.00;101259.00;;;;10542757;28;20191;-78
2022/02/13 02:05:29;;;;;;;7.77;4.40;;;;;1.10;101256.00;;;;10505658;28;20643;-78
2022/02/13 02:10:31;;;;;;;8.80;4.57;;;;;1.20;101246.00;;;;10539600;28;20185;-77
2022/02/13 02:15:34;;;;;;;9.00;4.37;;;;;1.20;101253.00;;;;10508761;28;20334;-78
2022/02/13 02:20:36;;;;;;;7.27;4.27;;;;;1.20;101260.00;;;;10564501;28;20609;-78
2022/02/13 02:25:39;;;;;;;6.67;4.53;;;;;1.20;101239.00;;;;10564039;28;20238;-78
2022/02/13 02:30:41;;;;;;;5.97;4.20;;;;;1.20;101232.00;;;;10520257;28;20632;-78
2022/02/13 02:35:43;;;;;;;5.37;3.93;;;;;1.10;101225.00;;;;10521922;28;20215;-77
2022/02/13 02:40:44;;;;;;;9.60;4.57;;;;;1.10;101228.00;;;;10538477;28;20196;-77
2022/02/13 02:45:47;;;;;;;7.63;4.50;;;;;1.10;101221.00;;;;10471588;28;20590;-78
2022/02/13 02:50:49;;;;;;;5.77;4.57;;;;;0.90;101202.00;;;;10505660;28;20226;-78
2022/02/13 02:55:51;;;;;;;9.37;4.10;;;;;0.70;101189.00;;;;10537432;28;20177;-78
2022/02/13 03:00:53;;;;;;;7.77;4.37;;;;;0.70;101170.00;;;;10520256;28;20204;-78
2022/02/13 03:05:55;;;;;;;7.80;4.93;;;;;0.70;101165.00;;;;10511793;28;20320;-78
2022/02/13 03:10:56;;;;;;;8.97;4.60;;;;;0.70;101159.00;;;;10499711;28;20270;-78
2022/02/13 03:16:03;;;;;;;8.27;4.77;;;;;0.70;101155.00;;;;10522719;28;20690;-78
2022/02/13 03:21:05;;;;;;;8.27;4.93;;;;;0.60;101144.00;;;;10524196;28;20644;-78
2022/02/13 03:26:07;;;;;;;7.30;4.37;;;;;0.60;101130.00;;;;10503538;28;20205;-78
2022/02/13 03:31:11;;;;;;;8.23;5.00;;;;;0.70;101123.00;;;;10520326;28;20193;-78
2022/02/13 03:36:13;;;;;;;7.43;4.90;;;;;0.70;101114.00;;;;10503643;28;20186;-78
2022/02/13 03:41:15;;;;;;;7.43;5.00;;;;;0.70;101101.00;;;;10519672;28;20288;-78
2022/02/13 03:46:17;;;;;;;7.77;4.03;;;;;0.80;101083.00;;;;10519857;28;20212;-78
2022/02/13 03:51:19;;;;;;;6.80;4.77;;;;;0.80;101081.00;;;;10519834;28;20279;-78
2022/02/13 03:56:22;;;;;;;7.57;4.40;;;;;0.90;101076.00;;;;10520159;28;20173;-78
2022/02/13 04:01:24;;;;;;;8.73;5.50;;;;;1.00;101071.00;;;;10479783;28;20219;-78
2022/02/13 04:06:25;;;;;;;6.80;4.63;;;;;1.00;101088.00;;;;10501819;28;20208;-78
2022/02/13 04:11:27;;;;;;;12.83;5.43;;;;;1.20;101083.00;;;;10544970;28;20193;-79
2022/02/13 04:16:29;;;;;;;6.67;4.73;;;;;1.20;101066.00;;;;10469408;28;20209;-78
2022/02/13 04:21:31;;;;;;;6.67;3.97;;;;;1.20;101075.00;;;;10483709;28;20556;-75
2022/02/13 04:26:34;;;;;;;9.27;4.27;;;;;1.30;101061.00;;;;10504972;28;20664;-76
2022/02/13 04:31:36;;;;;;;9.57;4.87;;;;;1.30;101060.00;;;;10508387;28;20231;-76
2022/02/13 04:36:39;;;;;;;6.40;4.70;;;;;1.30;101055.00;;;;10508416;28;20216;-76
2022/02/13 04:41:41;;;;;;;8.87;4.93;;;;;1.30;101045.00;;;;10524813;28;20246;-78
2022/02/13 04:46:43;;;;;;;8.27;4.67;;;;;1.30;101038.00;;;;10526301;28;20292;-78
2022/02/13 04:51:45;;;;;;;8.57;5.03;;;;;1.30;101030.00;;;;10509347;28;20555;-76
2022/02/13 04:56:47;;;;;;;6.10;4.50;;;;;1.30;101024.00;;;;10492160;28;20215;-78
2022/02/13 05:01:49;;;;;;;7.97;5.20;;;;;1.30;101018.00;;;;10510487;28;20242;-77
2022/02/13 05:06:51;;;;;;;7.23;4.60;;;;;1.30;101015.00;;;;10559032;28;20232;-78
2022/02/13 05:11:56;;;;;;;7.53;4.93;;;;;1.30;101019.00;;;;10513564;28;20193;-78
2022/02/13 05:16:58;;;;;;;11.30;4.73;;;;;1.30;101010.00;;;;10542023;28;20196;-78
2022/02/13 05:22:00;;;;;;;9.00;5.37;;;;;1.30;100989.00;;;;10515729;28;20241;-76
2022/02/13 05:27:04;;;;;;;7.20;4.80;;;;;1.40;100990.00;;;;10501756;28;20217;-75
2022/02/13 05:32:06;;;;;;;5.43;4.50;;;;;1.50;100972.00;;;;10483623;28;20197;-77
2022/02/13 05:37:08;;;;;;;7.93;4.33;;;;;1.60;100967.00;;;;10497366;28;20280;-78
2022/02/13 05:42:10;;;;;;;4.73;3.80;;;;;1.70;100965.00;;;;10481450;28;20250;-76
2022/02/13 05:47:12;;;;;;;5.93;4.47;;;;;1.70;100937.00;;;;10502266;28;20213;-76
2022/02/13 05:52:14;;;;;;;10.37;4.73;;;;;1.70;100934.00;;;;10463437;28;20194;-76
2022/02/13 05:57:18;;;;;;;7.83;4.90;;;;;1.60;100937.00;;;;10515005;28;20189;-77
2022/02/13 06:02:20;;;;;;;6.80;4.03;;;;;1.60;100922.00;;;;10473316;28;20208;-78
2022/02/13 06:07:22;;;;;;;9.17;5.00;;;;;1.50;100926.00;;;;10458350;28;20233;-76
2022/02/13 06:12:24;;;;;;;7.80;4.40;;;;;1.60;100917.00;;;;10477416;28;20284;-76
2022/02/13 06:17:26;;;;;;;8.90;5.13;;;;;1.60;100905.00;;;;10496453;28;20236;-76
2022/02/13 06:22:28;;;;;;;9.20;4.03;;;;;1.60;100911.00;;;;10494791;28;20239;-76
2022/02/13 06:27:30;;;;;;;7.53;4.27;;;;;1.60;100889.00;;;;10478112;28;20213;-75
2022/02/13 06:32:31;;;;;;;8.03;4.30;;;;;1.60;100901.00;;;;10461293;28;20213;-76
2022/02/13 06:37:33;;;;;;;8.60;4.50;;;;;1.60;100904.00;;;;10510964;28;20209;-75
2022/02/13 06:42:35;;;;;;;6.70;4.40;;;;;1.60;100913.00;;;;10477171;28;20243;-76
2022/02/13 06:47:37;;;;;;;7.63;4.60;;;;;1.60;100890.00;;;;10482533;28;20209;-76
2022/02/13 06:52:39;;;;;;;8.63;4.23;;;;;1.70;100880.00;;;;10477436;28;20193;-77
2022/02/13 06:57:50;;;;;;;5.43;3.77;;;;;1.70;100886.00;;;;10478147;28;20221;-77
2022/02/13 07:02:52;;;;;;;5.13;3.50;;;;;1.80;100889.00;;;;10517670;28;20235;-77
2022/02/13 07:07:54;;;;;;;5.90;4.07;;;;;1.90;100882.00;;;;10503905;28;20209;-77
2022/02/13 07:12:56;;;;;;;8.03;4.40;;;;;2.00;100879.00;;;;10503571;28;20227;-77
2022/02/13 07:17:58;;;;;;;8.50;4.23;;;;;2.10;100882.00;;;;10481169;28;20197;-77
2022/02/13 07:23:00;;;;;;;7.57;4.60;;;;;2.20;100883.00;;;;10477624;28;20217;-77
2022/02/13 07:28:58;;;;;;;6.00;4.23;;;;;2.40;100876.00;;;;10478185;28;20209;-77
2022/02/13 07:33:26;;;;;;;5.33;4.50;;;;;2.50;100882.00;;;;10493452;28;20221;-77
2022/02/13 07:38:28;;;;;;;9.20;4.47;;;;;2.60;100893.00;;;;10494492;28;20181;-77
2022/02/13 07:43:30;;;;;;;6.33;4.77;;;;;2.70;100893.00;;;;10479519;28;20239;-77
2022/02/13 07:48:32;;;;;;;6.50;4.80;;;;;2.90;100893.00;;;;10501650;28;20303;-77
2022/02/13 07:53:35;;;;;;;7.57;4.47;;;;;3.00;100894.00;;;;10502835;28;20246;-77
2022/02/13 07:58:37;;;;;;;7.17;4.70;;;;;3.10;100884.00;;;;10486353;28;20195;-78
2022/02/13 08:03:39;;;;;;;7.97;4.80;;;;;3.30;100878.00;;;;10503160;28;20295;-77
2022/02/13 08:08:41;;;;;;;7.20;4.70;;;;;3.30;100877.00;;;;10502981;28;20205;-77
2022/02/13 08:13:44;;;;;;;5.00;3.23;;;;;3.40;100873.00;;;;10481399;28;20228;-77
2022/02/13 08:18:46;;;;;;;6.87;4.73;;;;;3.60;100863.00;;;;10485895;28;20568;-77
2022/02/13 08:23:49;;;;;;;7.43;4.20;;;;;3.70;100866.00;;;;10518637;28;20227;-77
2022/02/13 08:28:52;;;;;;;6.00;4.13;;;;;4.00;100879.00;;;;10502880;28;20261;-77
2022/02/13 08:33:54;;;;;;;7.43;4.73;;;;;4.30;100867.00;;;;10490328;28;20234;-77
2022/02/13 08:38:56;;;;;;;8.13;4.30;;;;;4.80;100860.00;;;;10494292;28;20231;-77
2022/02/13 08:43:58;;;;;;;7.73;4.50;;;;;5.40;100864.00;;;;10507600;28;20235;-77
2022/02/13 08:49:01;;;;;;;5.73;4.57;;;;;6.00;100858.00;;;;10502370;28;20204;-77
2022/02/13 08:54:03;;;;;;;6.97;4.40;;;;;6.60;100858.00;;;;10479304;28;20456;-77
2022/02/13 08:59:05;;;;;;;5.80;3.87;;;;;7.10;100843.00;;;;10493184;28;20189;-77
2022/02/13 09:04:07;;;;;;;6.77;3.97;;;;;7.50;100824.00;;;;10501948;28;20691;-77
2022/02/13 09:09:09;;;;;;;6.57;3.97;;;;;7.70;100809.00;;;;10508534;28;20288;-77
2022/02/13 09:14:12;;;;;;;5.70;4.83;;;;;7.80;100806.00;;;;10525766;28;20249;-77
2022/02/13 09:19:14;;;;;;;6.27;4.03;;;;;7.90;100800.00;;;;10504061;28;20233;-77
2022/02/13 09:24:15;;;;;;;4.10;3.03;;;;;8.10;100796.00;;;;10508274;28;20209;-77
2022/02/13 09:29:17;;;;;;;8.47;4.10;;;;;8.40;100799.00;;;;10524511;28;20258;-77
2022/02/13 09:34:25;;;;;;;5.67;3.93;;;;;8.70;100794.00;;;;10540871;28;20224;-77
2022/02/13 09:39:27;;;;;;;5.80;4.00;;;;;9.10;100778.00;;;;10491180;28;20196;-79
2022/02/13 09:44:29;;;;;;;7.03;4.17;;;;;9.50;100767.00;;;;10499263;28;20235;-77
2022/02/13 09:49:31;;;;;;;5.37;4.30;;;;;9.80;100747.00;;;;10507206;28;20213;-77
2022/02/13 09:54:35;;;;;;;4.60;3.83;;;;;9.80;100753.00;;;;10523113;28;20271;-77
2022/02/13 10:00:00;;;;;;;5.00;3.53;;;;;9.90;100750.00;;;;10507562;28;20224;-77
2022/02/13 10:05:19;;;;;;;4.23;3.53;;;;;10.10;100725.00;;;;10537753;28;20215;-77
2022/02/13 10:10:26;;;;;;;4.50;3.70;;;;;10.20;100734.00;;;;10522887;28;20192;-78
2022/02/13 10:15:32;;;;;;;5.60;4.03;;;;;10.20;100725.00;;;;10500941;28;20212;-77
2022/02/13 10:20:41;;;;;;;6.87;4.03;;;;;10.40;100731.00;;;;10505410;28;20204;-77
2022/02/13 10:25:44;;;;;;;6.50;4.63;;;;;10.30;100720.00;;;;10488714;28;20205;-78
2022/02/13 10:30:47;;;;;;;4.13;3.57;;;;;10.30;100702.00;;;;10504488;28;20272;-77
2022/02/13 10:36:05;;;;;;;6.37;4.10;;;;;10.60;100695.00;;;;10464771;28;20194;-77
2022/02/13 10:41:16;;;;;;;6.90;3.60;;;;;10.80;100691.00;;;;10478572;28;20197;-77
2022/02/13 10:46:20;;;;;;;5.00;3.67;;;;;10.80;100676.00;;;;10514992;28;20270;-77
2022/02/13 10:51:22;;;;;;;5.67;3.93;;;;;10.80;100657.00;;;;10495838;28;20271;-77
2022/02/13 10:56:25;;;;;;;8.40;4.00;;;;;10.80;100655.00;;;;10532921;28;20197;-77
2022/02/13 11:01:29;;;;;;;4.67;3.90;;;;;10.80;100645.00;;;;10511178;28;20622;-77
2022/02/13 11:06:37;;;;;;;5.73;4.03;;;;;10.80;100636.00;;;;10498848;28;20262;-77
2022/02/13 11:11:40;;;;;;;4.67;3.20;;;;;11.20;100627.00;;;;10497765;28;20739;-77
2022/02/13 11:16:45;;;;;;;4.93;3.20;;;;;11.70;100597.00;;;;10461008;28;20205;-77
2022/02/13 11:21:48;;;;;;;5.20;3.50;;;;;11.90;100589.00;;;;10477738;28;20197;-77
2022/02/13 11:27:01;;;;;;;4.07;3.10;;;;;12.20;100581.00;;;;10482992;28;20224;-77
2022/02/13 11:32:03;;;;;;;4.60;3.30;;;;;12.40;100563.00;;;;10510702;28;20690;-77
2022/02/13 11:37:10;;;;;;;3.60;3.00;;;;;12.50;100552.00;;;;10497937;28;20192;-77
2022/02/13 11:42:19;;;;;;;5.17;3.27;;;;;12.60;100544.00;;;;10526432;28;20259;-77
2022/02/13 11:47:38;;;;;;;4.13;3.20;;;;;12.80;100533.00;;;;10541073;28;20213;-77
2022/02/13 11:53:00;;;;;;;6.23;3.40;;;;;12.80;100516.00;;;;10494049;28;20584;-77
2022/02/13 11:58:13;;;;;;;6.87;3.70;;;;;13.00;100521.00;;;;10493254;28;20185;-77
2022/02/13 12:03:15;;;;;;;5.87;3.47;;;;;13.00;100500.00;;;;10484127;28;20209;-77
2022/02/13 12:08:22;;;;;;;7.57;4.67;;;;;13.20;100474.00;;;;10516397;28;20215;-77
2022/02/13 12:13:26;;;;;;;8.10;4.50;;;;;13.30;100466.00;;;;10507245;28;20242;-77
2022/02/13 12:18:29;;;;;;;10.07;4.77;;;;;13.20;100450.00;;;;10518789;28;20197;-77
2022/02/13 12:23:31;;;;;;;9.50;5.07;;;;;13.50;100418.00;;;;10535812;28;20723;-77
2022/02/13 12:28:37;;;;;;;9.82;4.45;;;;;13.50;100424.00;;;;10504400;28;20741;-77
2022/02/13 12:33:44;;;;;;;5.72;4.32;;;;;13.80;100414.00;;;;10526909;28;20205;-77
2022/02/13 12:38:46;;;;;;;10.13;4.60;;;;;13.50;100419.00;;;;10510399;28;20343;-76
2022/02/13 12:43:50;;;;;;;9.93;4.17;;;;;13.40;100404.00;;;;10509803;28;20193;-77
2022/02/13 12:48:54;;;;;;;9.60;4.17;;;;;14.10;100377.00;;;;10525681;28;20201;-77
2022/02/13 12:53:58;;;;;;;10.70;4.78;;;;;14.30;100358.00;;;;10526609;28;20239;-77
2022/02/13 12:59:00;;;;;;;9.35;4.18;;;;;14.20;100349.00;;;;10526249;28;20197;-76
2022/02/13 13:04:02;;;;;;;7.20;4.40;;;;;13.80;100335.00;;;;10521193;28;20216;-77
2022/02/13 13:09:19;;;;;;;9.27;4.30;;;;;13.50;100319.00;;;;10522314;28;20209;-77
2022/02/13 13:14:21;;;;;;;12.87;5.07;;;;;13.40;100318.00;;;;10558771;28;20350;-77
2022/02/13 13:19:29;;;;;;;9.20;4.20;;;;;13.10;100290.00;;;;10488328;28;20206;-77
2022/02/13 13:24:34;;;;;;;7.43;4.60;;;;;13.00;100285.00;;;;10466964;28;20640;-77
2022/02/13 13:29:42;;;;;;;11.87;5.03;;;;;12.80;100287.00;;;;10466350;28;20232;-78
2022/02/13 13:34:44;;;;;;;8.37;4.43;;;;;12.70;100277.00;;;;10485343;28;20263;-77
2022/02/13 13:39:58;;;;;;;6.90;4.70;;;;;12.60;100259.00;;;;10490096;28;20250;-77
2022/02/13 13:45:06;;;;;;;7.47;4.10;;;;;12.60;100248.00;;;;10523572;28;20231;-77
2022/02/13 13:50:10;;;;;;;8.70;4.07;;;;;12.40;100240.00;;;;10516015;28;20240;-76
2022/02/13 13:55:14;;;;;;;10.90;4.23;;;;;12.30;100222.00;;;;10465832;28;20228;-77
2022/02/13 14:00:17;;;;;;;11.00;4.10;;;;;12.20;100234.00;;;;10499522;28;20190;-77
2022/02/13 14:05:19;;;;;;;11.97;4.20;;;;;12.10;100224.00;;;;10511491;28;20261;-78
2022/02/13 14:10:22;;;;;;;10.13;4.37;;;;;12.00;100202.00;;;;10522765;28;20588;-78
2022/02/13 14:15:26;;;;;;;8.63;4.33;;;;;11.90;100196.00;;;;10489384;28;20197;-78
2022/02/13 14:20:30;;;;;;;6.30;4.00;;;;;11.80;100178.00;;;;10489131;28;20197;-78
2022/02/13 14:25:32;;;;;;;8.60;4.07;;;;;11.80;100172.00;;;;10489406;28;20207;-78
2022/02/13 14:30:35;;;;;;;11.70;4.93;;;;;12.10;100162.00;;;;10505319;28;20185;-77
2022/02/13 14:35:38;;;;;;;11.47;4.97;;;;;12.30;100163.00;;;;10505691;28;20192;-78
2022/02/13 14:40:39;;;;;;;10.73;5.80;;;;;12.30;100146.00;;;;10522432;28;20287;-77
2022/02/13 14:45:41;;;;;;;11.67;4.67;;;;;12.20;100134.00;;;;10526701;28;20249;-75
2022/02/13 14:50:45;;;;;;;10.80;4.90;;;;;12.20;100116.00;;;;10512168;28;20195;-77
2022/02/13 14:55:47;;;;;;;13.93;4.90;;;;;12.20;100118.00;;;;10505186;28;20216;-78
2022/02/13 15:00:54;;;;;;;9.97;4.93;;;;;12.40;100106.00;;;;10531591;28;20197;-78
2022/02/13 15:05:56;;;;;;;15.20;5.43;;;;;13.10;100075.00;;;;10512269;28;20221;-77
2022/02/13 15:11:00;;;;;;;9.50;4.27;;;;;14.40;100058.00;;;;10487777;28;20189;-77
2022/02/13 15:16:03;;;;;;;6.23;4.20;;;;;15.10;100040.00;;;;10528954;28;20196;-77
2022/02/13 15:21:04;;;;;;;10.60;5.20;;;;;14.30;100052.00;;;;10524777;28;20283;-77
2022/02/13 15:26:08;;;;;;;7.80;4.20;;;;;14.30;100026.00;;;;10522264;28;20580;-77
2022/02/13 15:31:14;;;;;;;8.90;4.97;;;;;13.80;100012.00;;;;10520295;28;20196;-77
2022/02/13 15:36:16;;;;;;;8.23;4.10;;;;;13.20;99999.00;;;;10522313;28;20215;-77
2022/02/13 15:41:21;;;;;;;10.77;4.20;;;;;12.50;100002.00;;;;10539071;28;20245;-77
2022/02/13 15:46:23;;;;;;;6.23;3.60;;;;;11.90;99990.00;;;;10539259;28;20209;-77
2022/02/13 15:51:25;;;;;;;11.07;4.23;;;;;11.50;99990.00;;;;10505393;28;20246;-78
2022/02/13 15:56:27;;;;;;;7.57;4.37;;;;;11.20;99979.00;;;;10499132;28;20209;-78
2022/02/13 16:01:29;;;;;;;10.50;4.47;;;;;10.90;99968.00;;;;10522215;28;20738;-78
2022/02/13 16:06:31;;;;;;;6.13;3.73;;;;;10.70;99953.00;;;;10529875;28;20238;-77
2022/02/13 16:11:33;;;;;;;8.67;3.77;;;;;10.50;99942.00;;;;10530904;28;20242;-78
2022/02/13 16:16:35;;;;;;;15.27;4.93;;;;;10.40;99925.00;;;;10542531;28;20200;-77
2022/02/13 16:21:37;;;;;;;8.00;4.23;;;;;10.20;99901.00;;;;10532148;28;20848;-78
2022/02/13 16:26:39;;;;;;;7.67;4.20;;;;;10.10;99910.00;;;;10514486;28;20208;-78
2022/02/13 16:31:42;;;;;;;6.67;3.70;;;;;10.10;99917.00;;;;10496967;28;20197;-77
2022/02/13 16:36:44;;;;;;;7.20;4.33;;;;;10.00;99907.00;;;;10479256;28;20242;-77
2022/02/13 16:41:46;;;;;;;7.70;4.77;;;;;10.00;99895.00;;;;10494466;28;20220;-77
2022/02/13 16:46:48;;;;;;;7.83;4.27;;;;;10.00;99893.00;;;;10456238;28;20718;-77
2022/02/13 16:51:50;;;;;;;8.20;4.00;;;;;10.00;99885.00;;;;10527136;28;20189;-77
2022/02/13 16:56:52;;;;;;;7.40;3.73;;;;;9.90;99896.00;;;;10494330;28;20193;-77
2022/02/13 17:01:54;;;;;;;5.90;3.80;;;;;9.90;99891.00;;;;10509798;28;20254;-77
2022/02/13 17:06:57;;;;;;;8.90;4.60;;;;;10.00;99883.00;;;;10483634;28;20282;-77
2022/02/13 17:11:59;;;;;;;10.67;4.47;;;;;10.00;99875.00;;;;10501789;28;20189;-77
2022/02/13 17:17:02;;;;;;;9.97;4.13;;;;;10.10;99866.00;;;;10548970;28;20212;-77
2022/02/13 17:22:08;;;;;;;7.77;4.30;;;;;10.00;99878.00;;;;10508051;28;20196;-77
2022/02/13 17:27:09;;;;;;;7.33;4.10;;;;;10.00;99869.00;;;;10508754;28;20266;-78
2022/02/13 17:32:11;;;;;;;7.97;4.07;;;;;10.00;99863.00;;;;10524547;28;20201;-77
2022/02/13 17:37:13;;;;;;;11.93;3.73;;;;;10.00;99854.00;;;;10541017;28;20280;-77
2022/02/13 17:42:15;;;;;;;10.20;5.20;;;;;10.00;99847.00;;;;10524126;28;20192;-77
2022/02/13 17:47:17;;;;;;;9.67;4.50;;;;;10.00;99837.00;;;;10575689;28;20237;-78
2022/02/13 17:52:20;;;;;;;4.73;3.07;;;;;10.10;99812.00;;;;10567212;28;20213;-78
2022/02/13 17:57:22;;;;;;;9.63;4.43;;;;;10.10;99830.00;;;;10565842;28;20188;-78
2022/02/13 18:02:24;;;;;;;9.07;4.07;;;;;10.10;99822.00;;;;10548833;28;20227;-78
2022/02/13 18:07:32;;;;;;;11.03;4.20;;;;;10.10;99807.00;;;;10493803;28;20209;-77
2022/02/13 18:12:35;;;;;;;9.03;4.43;;;;;10.20;99808.00;;;;10485686;28;20205;-78
2022/02/13 18:17:37;;;;;;;10.60;4.20;;;;;10.20;99806.00;;;;10527075;28;20200;-78
2022/02/13 18:22:39;;;;;;;8.00;3.33;;;;;10.20;99807.00;;;;10526717;28;20235;-78
2022/02/13 18:27:41;;;;;;;5.77;3.50;;;;;10.30;99794.00;;;;10505753;28;20258;-78
2022/02/13 18:32:44;;;;;;;7.33;3.50;;;;;10.30;99777.00;;;;10488955;28;20196;-77
2022/02/13 18:37:46;;;;;;;9.37;3.67;;;;;10.30;99775.00;;;;10504935;28;20197;-77
2022/02/13 18:42:48;;;;;;;8.30;3.90;;;;;10.40;99762.00;;;;10521274;28;20197;-77
2022/02/13 18:47:50;;;;;;;12.20;3.57;;;;;10.30;99752.00;;;;10504680;28;20217;-78
2022/02/13 18:52:52;;;;;;;6.70;3.10;;;;;10.40;99757.00;;;;10538160;28;20188;-77
2022/02/13 18:57:56;;;;;;;8.17;3.77;;;;;10.40;99728.00;;;;10521084;28;20193;-77
2022/02/13 19:02:59;;;;;;;5.57;3.20;;;;;10.40;99730.00;;;;10504082;28;20197;-77
2022/02/13 19:08:01;;;;;;;7.50;3.97;;;;;10.40;99724.00;;;;10487399;28;20235;-77
2022/02/13 19:13:03;;;;;;;6.20;3.37;;;;;10.50;99724.00;;;;10503688;28;20287;-78
2022/02/13 19:18:05;;;;;;;5.93;3.10;;;;;10.50;99715.00;;;;10478948;28;20266;-78
2022/02/13 19:23:07;;;;;;;5.73;2.77;;;;;10.40;99714.00;;;;10491150;28;20193;-78
2022/02/13 19:28:21;;;;;;;6.77;2.93;;;;;10.40;99712.00;;;;10487250;28;20300;-77
2022/02/13 19:33:27;;;;;;;8.33;3.23;;;;;10.50;99707.00;;;;10520451;28;20208;-77
2022/02/13 19:38:31;;;;;;;6.07;2.97;;;;;10.50;99705.00;;;;10485946;28;20211;-78
2022/02/13 19:43:34;;;;;;;7.70;2.97;;;;;10.40;99692.00;;;;10505773;28;20203;-77
2022/02/13 19:48:36;;;;;;;4.97;2.80;;;;;10.40;99679.00;;;;10543794;28;20211;-77
2022/02/13 19:53:38;;;;;;;9.37;3.70;;;;;10.50;99684.00;;;;10511013;28;20189;-77
2022/02/13 19:58:40;;;;;;;7.37;3.00;;;;;10.50;99669.00;;;;10462313;28;20227;-77
2022/02/13 20:03:42;;;;;;;7.50;3.07;;;;;10.50;99672.00;;;;10500090;28;20219;-77
2022/02/13 20:08:44;;;;;;;7.03;3.10;;;;;10.50;99665.00;;;;10485458;28;20699;-77
2022/02/13 20:13:46;;;;;;;7.23;3.13;;;;;10.50;99672.00;;;;10507024;28;20249;-77
2022/02/13 20:18:48;;;;;;;5.63;3.03;;;;;10.40;99654.00;;;;10522609;28;20193;-77
2022/02/13 20:23:49;;;;;;;7.87;3.20;;;;;10.40;99665.00;;;;10489205;28;20189;-77
2022/02/13 20:28:51;;;;;;;7.43;3.70;;;;;10.50;99659.00;;;;10500882;28;20201;-77
2022/02/13 20:33:53;;;;;;;5.10;3.43;;;;;10.50;99659.00;;;;10501551;28;20193;-77
2022/02/13 20:38:56;;;;;;;7.13;3.60;;;;;10.50;99648.00;;;;10521000;28;20233;-77
2022/02/13 20:43:58;;;;;;;9.00;3.73;;;;;10.50;99636.00;;;;10517816;28;20192;-77
2022/02/13 20:49:00;;;;;;;8.43;3.70;;;;;10.50;99643.00;;;;10527040;28;20250;-78
2022/02/13 20:54:03;;;;;;;7.03;3.30;;;;;10.50;99642.00;;;;10516867;28;20205;-77
2022/02/13 20:59:05;;;;;;;5.53;2.97;;;;;10.50;99633.00;;;;10507888;28;20201;-77
2022/02/13 21:04:07;;;;;;;8.77;3.70;;;;;10.50;99640.00;;;;10524680;28;20243;-78
2022/02/13 21:09:11;;;;;;;5.90;3.37;;;;;10.50;99631.00;;;;10507291;28;20200;-77
2022/02/13 21:14:13;;;;;;;6.73;3.53;;;;;10.60;99630.00;;;;10487483;28;20197;-78
2022/02/13 21:19:15;;;;;;;6.13;3.27;;;;;10.60;99635.00;;;;10506798;28;20200;-78
2022/02/13 21:24:17;;;;;;;7.87;3.53;;;;;10.70;99633.00;;;;10520994;28;20189;-77
2022/02/13 21:29:21;;;;;;;10.67;3.60;;;;;10.70;99615.00;;;;10503587;28;20208;-77
2022/02/13 21:34:24;;;;;;;6.80;3.40;;;;;10.70;99628.00;;;;10463766;28;20695;-78
2022/02/13 21:39:26;;;;;;;7.73;3.40;;;;;10.70;99627.00;;;;10507977;28;20201;-77
2022/02/13 21:44:28;;;;;;;6.60;2.87;;;;;10.70;99605.00;;;;10516900;28;20192;-77
2022/02/13 21:49:30;;;;;;;6.03;3.33;;;;;10.60;99604.00;;;;10531938;28;20303;-78
2022/02/13 21:54:32;;;;;;;7.77;3.23;;;;;10.60;99593.00;;;;10515525;28;20204;-78
2022/02/13 21:59:34;;;;;;;6.93;3.03;;;;;10.60;99593.00;;;;10522090;28;20204;-78
2022/02/13 22:04:37;;;;;;;6.77;3.00;;;;;10.60;99590.00;;;;10504180;28;20209;-78
2022/02/13 22:09:39;;;;;;;8.53;3.23;;;;;10.70;99591.00;;;;10487765;28;20240;-78
2022/02/13 22:14:40;;;;;;;6.00;3.07;;;;;10.70;99568.00;;;;10501030;28;20227;-77
2022/02/13 22:19:42;;;;;;;5.47;3.50;;;;;10.70;99577.00;;;;10513669;28;20203;-78
2022/02/13 22:24:44;;;;;;;9.33;3.73;;;;;10.80;99592.00;;;;10526099;28;20678;-78
2022/02/13 22:29:46;;;;;;;9.00;3.20;;;;;10.80;99583.00;;;;10542300;28;20209;-78
2022/02/13 22:34:48;;;;;;;7.10;2.93;;;;;10.80;99588.00;;;;10504391;28;20197;-78
2022/02/13 22:39:50;;;;;;;6.60;2.90;;;;;10.80;99571.00;;;;10462610;28;20258;-79
2022/02/13 22:44:52;;;;;;;8.90;3.17;;;;;10.80;99552.00;;;;10494358;28;20253;-78
2022/02/13 22:49:54;;;;;;;6.47;3.00;;;;;10.70;99555.00;;;;10505038;28;20221;-78
2022/02/13 22:54:57;;;;;;;6.00;3.50;;;;;10.80;99556.00;;;;10544925;28;20196;-78
2022/02/13 22:59:59;;;;;;;6.97;3.20;;;;;10.80;99553.00;;;;10542495;28;20200;-78
2022/02/13 23:05:05;;;;;;;6.40;3.33;;;;;10.80;99562.00;;;;10502515;28;20688;-77
2022/02/13 23:15:30;;;;;;;8.03;2.87;;;;;10.80;99550.00;;;;10484545;28;20197;-76
2022/02/13 23:20:39;;;;;;;7.70;3.23;;;;;10.90;99543.00;;;;10502229;28;20254;-76
2022/02/13 23:25:46;;;;;;;5.87;2.97;;;;;10.80;99546.00;;;;10485602;28;20283;-76
2022/02/13 23:30:50;;;;;;;7.40;2.83;;;;;10.80;99526.00;;;;10501066;28;20227;-76
2022/02/13 23:35:55;;;;;;;6.00;2.80;;;;;10.70;99521.00;;;;10506708;28;20216;-76
2022/02/13 23:40:58;;;;;;;5.03;3.13;;;;;10.80;99508.00;;;;10492596;28;20189;-76
2022/02/13 23:45:59;;;;;;;4.73;3.27;;;;;10.80;99512.00;;;;10487122;28;20255;-76
2022/02/13 23:51:03;;;;;;;7.47;2.60;;;;;10.80;99500.00;;;;10537773;28;20204;-76
2022/02/13 23:56:05;;;;;;;7.73;2.87;;;;;10.80;99503.00;;;;10559889;28;20191;-75
